createdAt,value
2023-04-28T00:04:37.932Z,47.59
2023-04-28T00:09:42.302Z,47.80
2023-04-28T00:14:45.328Z,47.95
2023-04-28T00:19:48.059Z,48.01
2023-04-28T00:24:52.210Z,48.14
2023-04-28T00:29:55.157Z,48.33
2023-04-28T00:34:58.396Z,48.50
2023-04-28T00:40:02.552Z,48.72
2023-04-28T00:45:07.299Z,48.76
2023-04-28T00:50:11.511Z,49.16
2023-04-28T00:55:16.018Z,49.37
2023-04-28T01:00:19.782Z,49.20
2023-04-28T01:05:23.285Z,49.49
2023-04-28T01:10:27.612Z,49.71
2023-04-28T01:15:30.817Z,49.85
2023-04-28T01:20:33.616Z,50.17
2023-04-28T01:25:38.188Z,49.96
2023-04-28T01:30:41.293Z,49.60
2023-04-28T01:35:44.100Z,50.19
2023-04-28T01:40:48.225Z,50.10
2023-04-28T01:45:51.370Z,50.40
2023-04-28T01:50:54.201Z,50.43
2023-04-28T01:55:58.482Z,50.73
2023-04-28T02:01:01.459Z,50.80
2023-04-28T02:06:04.972Z,50.67
2023-04-28T02:11:09.107Z,50.57
2023-04-28T02:16:12.021Z,50.51
2023-04-28T02:21:14.817Z,50.33
2023-04-28T02:26:18.953Z,50.85
2023-04-28T02:31:21.776Z,50.72
2023-04-28T02:36:24.827Z,50.92
2023-04-28T02:41:31.070Z,51.11
2023-04-28T02:46:33.937Z,50.95
2023-04-28T02:51:36.792Z,51.06
2023-04-28T02:56:41.127Z,51.32
2023-04-28T03:01:44.380Z,51.14
2023-04-28T03:06:47.399Z,51.23
2023-04-28T03:11:53.237Z,51.11
2023-04-28T03:16:56.400Z,51.20
2023-04-28T03:21:59.289Z,51.32
2023-04-28T03:27:04.456Z,51.27
2023-04-28T03:32:08.207Z,51.23
2023-04-28T03:37:11.204Z,51.02
2023-04-28T03:42:15.499Z,51.20
2023-04-28T03:47:27.488Z,50.70
2023-04-28T03:52:31.032Z,50.64
2023-04-28T03:57:36.122Z,50.40
2023-04-28T04:02:39.189Z,50.53
2023-04-28T04:07:42.136Z,50.48
2023-04-28T04:12:46.250Z,50.47
2023-04-28T04:17:49.152Z,50.60
2023-04-28T04:22:52.002Z,50.26
2023-04-28T04:27:56.843Z,50.55
2023-04-28T04:32:59.634Z,50.36
2023-04-28T04:38:02.618Z,50.28
2023-04-28T04:43:07.716Z,50.40
2023-04-28T04:48:18.755Z,50.34
2023-04-28T04:53:21.972Z,50.23
2023-04-28T04:58:26.374Z,50.33
2023-04-28T05:04:01.437Z,50.01
2023-04-28T05:09:04.699Z,50.05
2023-04-28T05:14:11.952Z,50.03
2023-04-28T05:19:17.329Z,50.24
2023-04-28T05:24:23.480Z,49.95
2023-04-28T05:29:28.902Z,50.09
2023-04-28T05:34:31.871Z,50.04
2023-04-28T05:39:34.755Z,49.94
2023-04-28T05:44:43.068Z,50.02
2023-04-28T05:49:46.280Z,49.76
2023-04-28T05:54:49.195Z,49.58
2023-04-28T05:59:53.430Z,49.70
2023-04-28T06:04:57.111Z,49.46
2023-04-28T06:10:00.744Z,49.28
2023-04-28T06:15:05.862Z,49.30
2023-04-28T06:20:10.740Z,49.57
2023-04-28T06:25:14.112Z,49.27
2023-04-28T06:30:24.180Z,49.19
2023-04-28T06:35:27.169Z,49.24
2023-04-28T06:40:30.607Z,49.24
2023-04-28T06:45:36.072Z,49.27
2023-04-28T06:50:38.886Z,49.07
2023-04-28T06:55:43.504Z,39.16
2023-04-28T07:00:47.800Z,35.36
2023-04-28T07:05:50.700Z,34.30
2023-04-28T07:10:53.464Z,33.62
2023-04-28T07:15:57.730Z,34.49
2023-04-28T07:21:00.676Z,36.89
2023-04-28T07:26:04.307Z,37.72
2023-04-28T07:31:08.641Z,37.99
2023-04-28T07:36:11.437Z,38.52
2023-04-28T07:41:14.246Z,39.19
2023-04-28T07:46:18.430Z,39.45
2023-04-28T07:51:21.233Z,39.50
2023-04-28T07:56:24.426Z,39.79
2023-04-28T08:01:28.612Z,40.51
2023-04-28T08:06:31.641Z,40.59
2023-04-28T08:11:34.961Z,40.57
2023-04-28T08:16:41.175Z,41.02
2023-04-28T08:21:44.062Z,41.04
2023-04-28T08:26:46.857Z,41.26
2023-04-28T08:31:51.348Z,41.75
2023-04-28T08:36:54.250Z,42.14
2023-04-28T08:41:57.822Z,41.78
2023-04-28T08:47:02.210Z,42.25
2023-04-28T08:52:05.648Z,42.27
2023-04-28T08:57:09.973Z,42.78
2023-04-28T09:02:14.332Z,42.79
2023-04-28T09:07:17.249Z,43.01
2023-04-28T09:12:20.371Z,43.22
2023-04-28T09:17:24.564Z,40.11
2023-04-28T09:22:29.182Z,38.18
2023-04-28T09:27:32.007Z,38.98
2023-04-28T09:32:36.311Z,40.39
2023-04-28T09:37:39.166Z,41.16
2023-04-28T09:42:42.415Z,41.17
2023-04-28T09:47:48.221Z,41.23
2023-04-28T09:52:57.909Z,41.66
2023-04-28T09:58:01.035Z,42.33
2023-04-28T10:03:05.355Z,42.56
2023-04-28T10:08:08.176Z,43.05
2023-04-28T10:13:11.380Z,44.28
2023-04-28T10:18:15.889Z,44.62
2023-04-28T10:23:31.515Z,45.34
2023-04-28T10:28:34.583Z,45.91
2023-04-28T10:33:38.856Z,46.75
2023-04-28T10:39:12.188Z,47.44
2023-04-28T10:44:42.457Z,47.28
2023-04-28T10:50:11.673Z,47.01
2023-04-28T10:55:32.951Z,47.03
2023-04-28T11:00:36.128Z,46.92
2023-04-28T11:05:40.365Z,46.63
2023-04-28T11:11:17.710Z,46.74
2023-04-28T11:16:22.959Z,46.89
2023-04-28T11:21:28.178Z,46.81
2023-04-28T11:26:31.069Z,46.79
2023-04-28T11:31:34.044Z,46.96
2023-04-28T11:36:38.881Z,47.05
2023-04-28T11:41:42.731Z,46.99
2023-04-28T11:46:46.150Z,46.73
2023-04-28T11:51:50.524Z,46.76
2023-04-28T11:56:53.530Z,46.15
2023-04-28T12:01:57.221Z,46.38
2023-04-28T12:07:02.943Z,46.19
2023-04-28T12:12:06.640Z,45.75
2023-04-28T12:17:09.507Z,45.57
2023-04-28T12:22:17.468Z,45.64
2023-04-28T12:27:22.023Z,46.01
2023-04-28T12:32:38.574Z,46.17
2023-04-28T12:37:43.152Z,46.31
2023-04-28T12:42:45.982Z,46.48
2023-04-28T12:47:49.029Z,46.27
2023-04-28T12:52:53.222Z,46.66
2023-04-28T12:57:56.141Z,46.55
2023-04-28T13:02:59.213Z,46.77
2023-04-28T13:08:04.990Z,47.02
2023-04-28T13:13:07.939Z,47.05
2023-04-28T13:18:10.768Z,47.62
2023-04-28T13:23:14.951Z,47.77
2023-04-28T13:28:18.102Z,47.64
2023-04-28T13:33:20.854Z,47.38
2023-04-28T13:38:25.679Z,47.49
2023-04-28T13:43:28.526Z,47.32
2023-04-28T13:48:31.347Z,47.29
2023-04-28T13:53:36.379Z,47.42
2023-04-28T13:58:39.656Z,47.42
2023-04-28T14:03:44.411Z,47.65
2023-04-28T14:08:49.007Z,47.66
2023-04-28T14:13:51.791Z,47.89
2023-04-28T14:18:55.608Z,47.79
2023-04-28T14:23:59.751Z,47.91
2023-04-28T14:29:02.605Z,47.92
2023-04-28T14:34:05.485Z,48.14
2023-04-28T14:39:09.615Z,47.96
2023-04-28T14:44:12.384Z,48.18
2023-04-28T14:49:15.196Z,48.15
2023-04-28T14:54:19.457Z,48.21
2023-04-28T14:59:22.956Z,48.28
2023-04-28T15:04:29.893Z,48.28
2023-04-28T15:09:34.233Z,48.03
2023-04-28T15:14:37.129Z,48.11
2023-04-28T15:19:40.021Z,47.93
2023-04-28T15:24:44.144Z,47.91
2023-04-28T15:29:46.895Z,47.94
2023-04-28T15:34:49.811Z,47.98
2023-04-28T15:39:54.190Z,47.67
2023-04-28T15:44:57.082Z,47.93
2023-04-28T15:49:59.885Z,47.61
2023-04-28T15:55:04.151Z,47.53
2023-04-28T16:00:09.274Z,47.62
2023-04-28T16:05:12.153Z,47.73
2023-04-28T16:10:17.224Z,47.43
2023-04-28T16:15:20.113Z,47.48
2023-04-28T16:20:23.055Z,47.42
2023-04-28T16:25:27.467Z,47.50
2023-04-28T16:30:30.542Z,47.30
2023-04-28T16:35:33.451Z,47.20
2023-04-28T16:40:37.646Z,47.30
2023-04-28T16:45:40.644Z,47.25
2023-04-28T16:50:43.579Z,47.27
2023-04-28T16:55:47.868Z,47.20
2023-04-28T17:00:50.871Z,47.28
2023-04-28T17:05:53.696Z,47.29
2023-04-28T17:10:57.889Z,47.06
2023-04-28T17:16:01.124Z,46.97
2023-04-28T17:21:03.988Z,47.03
2023-04-28T17:26:08.227Z,46.83
2023-04-28T17:31:11.533Z,46.84
2023-04-28T17:36:14.413Z,46.66
2023-04-28T17:41:19.752Z,46.61
2023-04-28T17:46:22.617Z,46.43
2023-04-28T17:51:25.552Z,46.42
2023-04-28T17:56:30.059Z,46.52
2023-04-28T18:01:33.798Z,46.37
2023-04-28T18:06:36.660Z,46.29
2023-04-28T18:11:40.868Z,46.28
2023-04-28T18:16:43.709Z,46.17
2023-04-28T18:21:46.535Z,46.44
2023-04-28T18:26:51.834Z,46.29
2023-04-28T18:31:55.529Z,46.22
2023-04-28T18:36:58.431Z,46.20
2023-04-28T18:42:04.207Z,46.28
2023-04-28T18:47:07.076Z,46.17
2023-04-28T18:52:10.029Z,46.00
2023-04-28T18:57:14.373Z,46.21
2023-04-28T19:02:17.708Z,46.12
2023-04-28T19:07:20.711Z,46.25
2023-04-28T19:12:25.026Z,46.02
2023-04-28T19:17:28.078Z,46.07
2023-04-28T19:22:35.976Z,46.18
2023-04-28T19:27:41.285Z,46.10
2023-04-28T19:32:44.244Z,46.20
2023-04-28T19:37:48.334Z,46.06
2023-04-28T19:42:52.628Z,46.07
2023-04-28T19:47:55.598Z,46.14
2023-04-28T19:52:58.553Z,46.29
2023-04-28T19:58:02.762Z,46.03
2023-04-28T20:03:05.745Z,45.98
2023-04-28T20:08:08.727Z,46.08
2023-04-28T20:13:13.603Z,46.12
2023-04-28T20:18:16.557Z,46.23
2023-04-28T20:23:19.458Z,46.07
2023-04-28T20:28:23.760Z,46.28
2023-04-28T20:33:26.515Z,46.14
2023-04-28T20:38:29.589Z,46.39
2023-04-28T20:43:33.743Z,46.21
2023-04-28T20:48:36.588Z,46.14
2023-04-28T20:53:39.623Z,46.16
2023-04-28T20:58:44.045Z,46.22
2023-04-28T21:03:46.955Z,46.01
2023-04-28T21:08:49.809Z,46.01
2023-04-28T21:13:54.138Z,45.96
2023-04-28T21:18:57.603Z,46.08
2023-04-28T21:24:00.539Z,46.14
2023-04-28T21:29:04.700Z,46.17
2023-04-28T21:34:07.682Z,46.29
2023-04-28T21:39:10.497Z,46.07
2023-04-28T21:44:14.669Z,46.17
2023-04-28T21:49:18.037Z,46.05
2023-04-28T21:54:21.089Z,46.13
2023-04-28T21:59:25.563Z,45.95
2023-04-28T22:04:28.786Z,46.22
2023-04-28T22:09:32.532Z,45.94
2023-04-28T22:14:41.005Z,46.13
2023-04-28T22:19:44.550Z,46.02
2023-04-28T22:24:47.371Z,46.05
2023-04-28T22:29:51.901Z,46.21
2023-04-28T22:34:55.126Z,46.06
2023-04-28T22:39:57.885Z,46.02
2023-04-28T22:45:03.717Z,45.82
2023-04-28T22:50:08.403Z,46.05
2023-04-28T22:55:11.835Z,46.02
2023-04-28T23:00:16.982Z,46.21
2023-04-28T23:05:19.726Z,46.01
2023-04-28T23:10:22.501Z,46.03
2023-04-28T23:15:26.593Z,46.09
2023-04-28T23:20:29.377Z,45.85
2023-04-28T23:25:32.270Z,46.04
2023-04-28T23:30:36.382Z,46.11
2023-04-28T23:35:39.167Z,46.03
2023-04-28T23:40:42.146Z,45.98
2023-04-28T23:45:46.492Z,45.99
2023-04-28T23:50:50.091Z,45.96
2023-04-28T23:55:52.836Z,45.96
